Aviation Digital Data Service (ADDS)

Output produced by METARs form (2203 UTC 16 October 2017)
found at http://www.aviationweather.gov/adds/metars/
 
KILG 162151Z 35012KT 10SM CLR 15/03 A3012 RMK AO2 SLP198 T01500033 $
KILG 161720Z 1618/1718 33014KT P6SM SCT040 BKN250 
     FM162300 33010KT P6SM FEW250 
     FM170400 34005KT P6SM SKC 
     FM171500 30007KT P6SM SKC